• Join FlightAware (Why Join?)
  • Login
  • US Flag 
01:13PM EDT


 

Airport Tracker/Info


-or-


 

Live Flight TrackerFlight Track Log ✈ SKW4542 ✈ 02-May-2013 ✈ KSLC - KIDA

Flight Track Log - Related Links

Times and Time Zones

All times are in EDT time to prevent confusion due to time zone crossing. See the SKW4542 flight status page for this flight to view local times or setup timezone preferences in your user account.

Time Position Orientation Groundspeed Altitude Reporting Facility
EDT Latitude Longitude Course Direction KTS MPH feet Rate Location/Type
07:11PM 40.8033 -111.9633 37° Northeast 155 178 5,000  Level Salt Lake Center
07:12PM 40.8653 -111.9708 355° North 199 229 7,100 2,100 Climbing Salt Lake Center
07:13PM 40.9189 -111.9781 354° North 245 282 9,200 3,060 Climbing Salt Lake Center
07:14PM 41.1587 -111.8850 43° Northeast  Level FlightAware Approximate
07:14PM 40.9936 -111.9900 353° North 264 304 12,600  Level Salt Lake Center
07:15PM 41.2413 -111.8087 37° Northeast  Level FlightAware Approximate
07:15PM 41.0683 -112.0011 354° North 268 308 15,400  Level Salt Lake Center
07:16PM 41.3296 -111.7371 37° Northeast  Level FlightAware Approximate
07:16PM 41.1508 -112.0022 359° North 297 342 17,000  Level Salt Lake Center
07:17PM 41.2425 -112.0067 358° North 325 374 18,200 1,560 Climbing Salt Lake Center
07:18PM 41.3358 -112.0086 359° North 334 384 20,300 1,680 Climbing Salt Lake Center
07:19PM 41.4283 -112.0111 359° North 334 384 21,700 1,260 Climbing Salt Lake Center
07:20PM 41.5258 -112.0128 359° North 348 400 23,000 600 Climbing Salt Lake Center
07:21PM 41.6281 -112.0158 359° North 368 423 23,000 600 Level Salt Lake Center
07:22PM 41.7308 -112.0197 358° North 370 426 24,300 1,440 Climbing Salt Lake Center
07:23PM 41.8522 -111.9994 North 364 419 26,000 780 Climbing Salt Lake Center
07:24PM 41.9581 -111.9772 North 381 438 26,000  Level Salt Lake Center
07:25PM 42.0617 -111.9586 North 377 434 26,000  Level Salt Lake Center
07:26PM 42.1644 -111.9372 North 374 430 26,000  Level Salt Lake Center
07:27PM 42.2664 -111.9328 North 366 421 26,000  Level Salt Lake Center
07:28PM 42.3664 -111.9461 354° North 362 417 26,000  Level Salt Lake Center
07:29PM 42.4669 -111.9564 356° North 362 417 26,000  Level Salt Lake Center
07:30PM 42.5878 -111.9692 356° North 363 418 26,000 -480 Level Salt Lake Center
07:31PM 42.6886 -111.9803 355° North 364 419 25,100 -1,740 Descending Salt Lake Center
07:32PM 42.7867 -111.9911 355° North 353 406 22,500 -2,460 Descending Salt Lake Center
07:33PM 42.8772 -111.9992 356° North 343 395 20,100 -2,400 Descending Salt Lake Center
07:34PM 42.9622 -112.0078 356° North 326 375 17,700 -2,340 Descending Salt Lake Center
07:35PM 43.0600 -112.0150 357° North 318 366 15,400 -2,520 Descending Salt Lake Center
07:36PM 43.1564 -112.0283 354° North 312 359 12,600 -2,400 Descending Salt Lake Center
07:37PM 43.2383 -112.0381 355° North 310 357 10,500 -1,920 Descending Salt Lake Center
07:38PM 43.3289 -112.0514 354° North 302 348 8,700 -1,620 Descending Salt Lake Center
07:39PM 43.4000 -112.0597 355° North 286 329 7,300 -1,260 Descending Salt Lake Center
07:40PM 43.4739 -112.0483 North 259 298 6,200 -540 Descending Salt Lake Center
07:41PM 43.5197 -111.9942 41° Northeast 235 270 6,300 60 Climbing Salt Lake Center